sensor_id;sensor_type;location;lat;lon;timestamp;pressure;altitude;pressure_sealevel;temperature;humidity
49585;BME280;35491;49.142;9.210;2023-11-19T00:19:43;99796.88;;;9.14;78.49
49585;BME280;35491;49.142;9.210;2023-11-19T00:20:47;99801.66;;;9.20;78.51
49585;BME280;35491;49.142;9.210;2023-11-19T00:21:55;99796.75;;;9.26;78.51
49585;BME280;35491;49.142;9.210;2023-11-19T00:23:02;99790.56;;;9.35;77.97
49585;BME280;35491;49.142;9.210;2023-11-19T00:24:04;99782.25;;;9.38;78.02
49585;BME280;35491;49.142;9.210;2023-11-19T00:25:09;99796.00;;;9.43;78.01
49585;BME280;35491;49.142;9.210;2023-11-19T00:26:10;99787.56;;;9.48;78.07
49585;BME280;35491;49.142;9.210;2023-11-19T00:27:14;99788.13;;;9.51;78.26
49585;BME280;35491;49.142;9.210;2023-11-19T00:28:16;99786.16;;;9.54;77.99
49585;BME280;35491;49.142;9.210;2023-11-19T00:29:19;99788.41;;;9.58;78.06
49585;BME280;35491;49.142;9.210;2023-11-19T00:30:21;99790.91;;;9.60;77.72
49585;BME280;35491;49.142;9.210;2023-11-19T00:31:24;99787.38;;;9.59;77.63
49585;BME280;35491;49.142;9.210;2023-11-19T00:32:26;99794.28;;;9.62;78.00
49585;BME280;35491;49.142;9.210;2023-11-19T00:33:29;99786.94;;;9.64;77.75
49585;BME280;35491;49.142;9.210;2023-11-19T00:34:31;99783.34;;;9.55;78.03
49585;BME280;35491;49.142;9.210;2023-11-19T00:35:37;99781.38;;;9.47;78.37
49585;BME280;35491;49.142;9.210;2023-11-19T00:36:38;99779.69;;;9.46;78.23
49585;BME280;35491;49.142;9.210;2023-11-19T00:37:42;99782.34;;;9.46;78.67
49585;BME280;35491;49.142;9.210;2023-11-19T00:38:43;99779.41;;;9.49;78.44
49585;BME280;35491;49.142;9.210;2023-11-19T00:39:46;99780.50;;;9.57;78.21
49585;BME280;35491;49.142;9.210;2023-11-19T00:40:47;99778.28;;;9.52;78.39
49585;BME280;35491;49.142;9.210;2023-11-19T00:41:50;99786.72;;;9.57;78.32
49585;BME280;35491;49.142;9.210;2023-11-19T00:42:51;99775.19;;;9.57;78.36
49585;BME280;35491;49.142;9.210;2023-11-19T00:43:54;99775.31;;;9.55;78.23
49585;BME280;35491;49.142;9.210;2023-11-19T00:44:55;99775.22;;;9.47;78.55
49585;BME280;35491;49.142;9.210;2023-11-19T00:45:59;99779.69;;;9.46;78.67
49585;BME280;35491;49.142;9.210;2023-11-19T00:47:01;99784.19;;;9.46;79.22
49585;BME280;35491;49.142;9.210;2023-11-19T00:48:05;99780.25;;;9.50;79.16
49585;BME280;35491;49.142;9.210;2023-11-19T00:49:06;99767.75;;;9.41;79.07
49585;BME280;35491;49.142;9.210;2023-11-19T00:50:12;99765.97;;;9.31;79.28
49585;BME280;35491;49.142;9.210;2023-11-19T00:51:15;99761.75;;;9.39;79.26
49585;BME280;35491;49.142;9.210;2023-11-19T00:52:19;99756.00;;;9.43;79.07
49585;BME280;35491;49.142;9.210;2023-11-19T00:53:20;99758.22;;;9.48;79.13
49585;BME280;35491;49.142;9.210;2023-11-19T00:54:23;99752.44;;;9.52;79.02
49585;BME280;35491;49.142;9.210;2023-11-19T00:55:26;99751.16;;;9.57;78.83
49585;BME280;35491;49.142;9.210;2023-11-19T00:56:29;99747.50;;;9.58;78.63
49585;BME280;35491;49.142;9.210;2023-11-19T00:57:31;99748.38;;;9.48;78.89
49585;BME280;35491;49.142;9.210;2023-11-19T00:58:33;99741.63;;;9.54;79.01
49585;BME280;35491;49.142;9.210;2023-11-19T00:59:37;99745.72;;;9.48;79.10
49585;BME280;35491;49.142;9.210;2023-11-19T01:00:38;99744.44;;;9.52;78.89
49585;BME280;35491;49.142;9.210;2023-11-19T01:01:43;99742.59;;;9.53;79.16
49585;BME280;35491;49.142;9.210;2023-11-19T01:02:44;99743.59;;;9.52;78.98
49585;BME280;35491;49.142;9.210;2023-11-19T01:03:49;99733.34;;;9.57;78.70
49585;BME280;35491;49.142;9.210;2023-11-19T01:04:50;99726.16;;;9.58;78.86
49585;BME280;35491;49.142;9.210;2023-11-19T01:05:54;99734.44;;;9.55;78.87
49585;BME280;35491;49.142;9.210;2023-11-19T01:06:58;99739.38;;;9.49;79.24
49585;BME280;35491;49.142;9.210;2023-11-19T01:07:59;99738.13;;;9.54;79.00
49585;BME280;35491;49.142;9.210;2023-11-19T01:09:05;99736.72;;;9.49;79.43
49585;BME280;35491;49.142;9.210;2023-11-19T01:10:06;99728.59;;;9.41;79.79
49585;BME280;35491;49.142;9.210;2023-11-19T01:11:19;99733.41;;;9.38;79.93
49585;BME280;35491;49.142;9.210;2023-11-19T01:12:21;99733.94;;;9.41;80.13
49585;BME280;35491;49.142;9.210;2023-11-19T01:13:24;99739.53;;;9.48;79.89
49585;BME280;35491;49.142;9.210;2023-11-19T01:14:25;99735.63;;;9.42;80.27
49585;BME280;35491;49.142;9.210;2023-11-19T01:15:28;99745.19;;;9.35;80.58
49585;BME280;35491;49.142;9.210;2023-11-19T01:16:29;99746.31;;;9.32;80.75
49585;BME280;35491;49.142;9.210;2023-11-19T01:17:33;99742.09;;;9.30;80.86
49585;BME280;35491;49.142;9.210;2023-11-19T01:18:34;99741.41;;;9.28;80.77
49585;BME280;35491;49.142;9.210;2023-11-19T01:19:38;99753.75;;;9.29;81.19
49585;BME280;35491;49.142;9.210;2023-11-19T01:20:39;99756.00;;;9.33;81.24
49585;BME280;35491;49.142;9.210;2023-11-19T01:21:42;99750.22;;;9.38;80.91
49585;BME280;35491;49.142;9.210;2023-11-19T01:22:46;99752.19;;;9.36;81.08
49585;BME280;35491;49.142;9.210;2023-11-19T01:23:49;99752.34;;;9.34;80.88
49585;BME280;35491;49.142;9.210;2023-11-19T01:24:50;99750.22;;;9.38;81.06
49585;BME280;35491;49.142;9.210;2023-11-19T01:25:52;99751.91;;;9.39;80.97
49585;BME280;35491;49.142;9.210;2023-11-19T01:26:56;99763.28;;;9.41;81.30
49585;BME280;35491;49.142;9.210;2023-11-19T01:27:58;99758.34;;;9.46;81.05
49585;BME280;35491;49.142;9.210;2023-11-19T01:29:02;99757.81;;;9.43;81.20
49585;BME280;35491;49.142;9.210;2023-11-19T01:30:05;99756.09;;;9.42;80.92
49585;BME280;35491;49.142;9.210;2023-11-19T01:31:09;99756.97;;;9.42;81.31
49585;BME280;35491;49.142;9.210;2023-11-19T01:32:10;99758.34;;;9.46;81.34
49585;BME280;35491;49.142;9.210;2023-11-19T01:33:12;99749.66;;;9.44;81.12
49585;BME280;35491;49.142;9.210;2023-11-19T01:34:16;99749.41;;;9.38;81.45
49585;BME280;35491;49.142;9.210;2023-11-19T01:35:16;99751.38;;;9.35;81.49
49585;BME280;35491;49.142;9.210;2023-11-19T01:36:20;99749.94;;;9.31;81.50
49585;BME280;35491;49.142;9.210;2023-11-19T01:37:21;99749.69;;;9.34;81.66
49585;BME280;35491;49.142;9.210;2023-11-19T01:38:24;99753.19;;;9.35;81.72
49585;BME280;35491;49.142;9.210;2023-11-19T01:39:28;99749.66;;;9.44;81.60
49585;BME280;35491;49.142;9.210;2023-11-19T01:40:29;99751.31;;;9.45;81.43
49585;BME280;35491;49.142;9.210;2023-11-19T01:41:34;99747.00;;;9.44;81.59
49585;BME280;35491;49.142;9.210;2023-11-19T01:42:36;99745.72;;;9.48;80.92
49585;BME280;35491;49.142;9.210;2023-11-19T01:43:39;99742.88;;;9.50;81.01
49585;BME280;35491;49.142;9.210;2023-11-19T01:44:41;99737.63;;;9.30;82.06
49585;BME280;35491;49.142;9.210;2023-11-19T01:45:45;99729.31;;;9.33;82.04
49585;BME280;35491;49.142;9.210;2023-11-19T01:46:46;99718.38;;;9.36;82.19
49585;BME280;35491;49.142;9.210;2023-11-19T01:47:51;99721.75;;;9.39;82.32
49585;BME280;35491;49.142;9.210;2023-11-19T01:48:52;99723.00;;;9.44;82.45
49585;BME280;35491;49.142;9.210;2023-11-19T01:49:55;99722.03;;;9.35;82.58
49585;BME280;35491;49.142;9.210;2023-11-19T01:50:57;99720.19;;;9.36;82.68
49585;BME280;35491;49.142;9.210;2023-11-19T01:51:57;99722.03;;;9.35;82.36
49585;BME280;35491;49.142;9.210;2023-11-19T01:53:01;99728.19;;;9.36;82.64
49585;BME280;35491;49.142;9.210;2023-11-19T01:54:05;99719.06;;;9.39;82.48
49585;BME280;35491;49.142;9.210;2023-11-19T01:55:09;99729.31;;;9.43;82.33
49585;BME280;35491;49.142;9.210;2023-11-19T01:56:11;99736.44;;;9.43;82.43
49585;BME280;35491;49.142;9.210;2023-11-19T01:57:14;99739.13;;;9.43;82.70
49585;BME280;35491;49.142;9.210;2023-11-19T01:58:18;99742.06;;;9.49;82.39
49585;BME280;35491;49.142;9.210;2023-11-19T01:59:19;99738.13;;;9.44;82.77
49585;BME280;35491;49.142;9.210;2023-11-19T02:00:26;99734.06;;;9.49;82.69
49585;BME280;35491;49.142;9.210;2023-11-19T02:01:27;99743.63;;;9.42;82.96
49585;BME280;35491;49.142;9.210;2023-11-19T02:02:30;99744.56;;;9.51;82.83
49585;BME280;35491;49.142;9.210;2023-11-19T02:03:31;99738.13;;;9.54;82.64
49585;BME280;35491;49.142;9.210;2023-11-19T02:04:35;99739.78;;;9.55;82.45
49585;BME280;35491;49.142;9.210;2023-11-19T02:05:38;99735.47;;;9.54;82.56
49585;BME280;35491;49.142;9.210;2023-11-19T02:06:43;99740.78;;;9.54;82.58
49585;BME280;35491;49.142;9.210;2023-11-19T02:07:44;99731.78;;;9.55;82.51
49585;BME280;35491;49.142;9.210;2023-11-19T02:08:46;99741.94;;;9.41;82.97
49585;BME280;35491;49.142;9.210;2023-11-19T02:09:52;99740.09;;;9.42;83.13
49585;BME280;35491;49.142;9.210;2023-11-19T02:10:53;99740.97;;;9.42;82.84
49585;BME280;35491;49.142;9.210;2023-11-19T02:11:57;99737.56;;;9.50;82.46
49585;BME280;35491;49.142;9.210;2023-11-19T02:12:58;99733.78;;;9.52;82.25
49585;BME280;35491;49.142;9.210;2023-11-19T02:13:59;99729.09;;;9.55;82.33
49585;BME280;35491;49.142;9.210;2023-11-19T02:15:04;99735.31;;;9.55;82.20
49585;BME280;35491;49.142;9.210;2023-11-19T02:16:08;99737.25;;;9.53;82.48
49585;BME280;35491;49.142;9.210;2023-11-19T02:17:25;99737.97;;;9.55;82.46
49585;BME280;35491;49.142;9.210;2023-11-19T02:18:26;99737.53;;;9.60;82.54
49585;BME280;35491;49.142;9.210;2023-11-19T02:19:30;99736.22;;;9.64;82.42
49585;BME280;35491;49.142;9.210;2023-11-19T02:20:33;99736.09;;;9.65;82.30
49585;BME280;35491;49.142;9.210;2023-11-19T02:21:35;99733.56;;;9.64;82.33
49585;BME280;35491;49.142;9.210;2023-11-19T02:22:38;99726.25;;;9.66;82.10
49585;BME280;35491;49.142;9.210;2023-11-19T02:23:39;99725.88;;;9.61;82.32
49585;BME280;35491;49.142;9.210;2023-11-19T02:24:42;99731.06;;;9.62;82.44
49585;BME280;35491;49.142;9.210;2023-11-19T02:25:51;99733.72;;;9.62;82.41
49585;BME280;35491;49.142;9.210;2023-11-19T02:26:56;99739.22;;;9.61;82.45
49585;BME280;35491;49.142;9.210;2023-11-19T02:28:05;99738.25;;;9.52;82.73
49585;BME280;35491;49.142;9.210;2023-11-19T02:29:06;99727.19;;;9.47;82.65
49585;BME280;35491;49.142;9.210;2023-11-19T02:30:10;99735.03;;;9.48;83.13
49585;BME280;35491;49.142;9.210;2023-11-19T02:31:11;99727.19;;;9.47;82.75
49585;BME280;35491;49.142;9.210;2023-11-19T02:32:15;99728.88;;;9.48;82.85
49585;BME280;35491;49.142;9.210;2023-11-19T02:33:16;99721.88;;;9.37;83.53
49585;BME280;35491;49.142;9.210;2023-11-19T02:34:17;99729.84;;;9.47;82.81
49585;BME280;35491;49.142;9.210;2023-11-19T02:35:21;99726.69;;;9.24;84.02
49585;BME280;35491;49.142;9.210;2023-11-19T02:36:23;99729.63;;;9.30;83.96
49585;BME280;35491;49.142;9.210;2023-11-19T02:37:27;99731.16;;;9.33;83.84
49585;BME280;35491;49.142;9.210;2023-11-19T02:38:28;99721.59;;;9.40;83.46
49585;BME280;35491;49.142;9.210;2023-11-19T02:39:31;99709.81;;;9.33;83.83
49585;BME280;35491;49.142;9.210;2023-11-19T02:40:32;99707.28;;;9.31;83.97
49585;BME280;35491;49.142;9.210;2023-11-19T02:41:36;99711.50;;;9.34;83.63
49585;BME280;35491;49.142;9.210;2023-11-19T02:42:37;99708.41;;;9.39;83.71
49585;BME280;35491;49.142;9.210;2023-11-19T02:43:40;99705.13;;;9.45;83.61
49585;BME280;35491;49.142;9.210;2023-11-19T02:44:43;99709.22;;;9.49;83.49
49585;BME280;35491;49.142;9.210;2023-11-19T02:45:44;99702.31;;;9.46;83.38
49585;BME280;35491;49.142;9.210;2023-11-19T02:46:49;99706.66;;;9.47;83.38
49585;BME280;35491;49.142;9.210;2023-11-19T02:47:50;99716.53;;;9.37;84.02
49585;BME280;35491;49.142;9.210;2023-11-19T02:48:55;99712.19;;;9.36;83.97
49585;BME280;35491;49.142;9.210;2023-11-19T02:49:55;99721.75;;;9.29;84.46
49585;BME280;35491;49.142;9.210;2023-11-19T02:50:56;99709.22;;;9.39;84.04
49585;BME280;35491;49.142;9.210;2023-11-19T02:52:01;99709.66;;;9.44;84.23
49585;BME280;35491;49.142;9.210;2023-11-19T02:53:03;99714.97;;;9.44;84.19
49585;BME280;35491;49.142;9.210;2023-11-19T02:54:07;99718.31;;;9.46;83.87
49585;BME280;35491;49.142;9.210;2023-11-19T02:55:07;99716.91;;;9.52;84.08
49585;BME280;35491;49.142;9.210;2023-11-19T02:56:13;99713.69;;;9.48;84.19
49585;BME280;35491;49.142;9.210;2023-11-19T02:57:16;99729.69;;;9.48;84.13
49585;BME280;35491;49.142;9.210;2023-11-19T02:58:21;99713.78;;;9.57;84.28
49585;BME280;35491;49.142;9.210;2023-11-19T02:59:26;99710.56;;;9.63;84.22
49585;BME280;35491;49.142;9.210;2023-11-19T03:00:39;99710.94;;;9.68;83.71
49585;BME280;35491;49.142;9.210;2023-11-19T03:01:47;99709.69;;;9.72;83.75
49585;BME280;35491;49.142;9.210;2023-11-19T03:02:52;99698.31;;;9.70;83.47
49585;BME280;35491;49.142;9.210;2023-11-19T03:03:59;99697.88;;;9.65;83.56
49585;BME280;35491;49.142;9.210;2023-11-19T03:05:03;99688.06;;;9.65;83.53
49585;BME280;35491;49.142;9.210;2023-11-19T03:06:05;99675.41;;;9.67;83.51
49585;BME280;35491;49.142;9.210;2023-11-19T03:07:06;99675.72;;;9.64;83.61
49585;BME280;35491;49.142;9.210;2023-11-19T03:08:10;99673.31;;;9.61;83.86
49585;BME280;35491;49.142;9.210;2023-11-19T03:09:10;99677.72;;;9.52;84.07
49585;BME280;35491;49.142;9.210;2023-11-19T03:10:13;99667.44;;;9.58;84.32
49585;BME280;35491;49.142;9.210;2023-11-19T03:11:14;99665.19;;;9.63;84.09
49585;BME280;35491;49.142;9.210;2023-11-19T03:12:18;99652.97;;;9.60;83.91
49585;BME280;35491;49.142;9.210;2023-11-19T03:13:18;99651.00;;;9.62;84.00
49585;BME280;35491;49.142;9.210;2023-11-19T03:14:19;99653.81;;;9.61;84.17
49585;BME280;35491;49.142;9.210;2023-11-19T03:15:26;99658.25;;;9.70;83.98
49585;BME280;35491;49.142;9.210;2023-11-19T03:16:27;99650.94;;;9.72;84.15
49585;BME280;35491;49.142;9.210;2023-11-19T03:17:30;99655.28;;;9.73;84.09
49585;BME280;35491;49.142;9.210;2023-11-19T03:18:31;99652.59;;;9.73;83.98
49585;BME280;35491;49.142;9.210;2023-11-19T03:19:33;99656.28;;;9.72;84.16
49585;BME280;35491;49.142;9.210;2023-11-19T03:20:36;99652.91;;;9.70;84.62
49585;BME280;35491;49.142;9.210;2023-11-19T03:21:36;99660.06;;;9.70;84.74
49585;BME280;35491;49.142;9.210;2023-11-19T03:22:37;99657.41;;;9.70;84.94
49585;BME280;35491;49.142;9.210;2023-11-19T03:23:41;99660.63;;;9.73;84.75
49585;BME280;35491;49.142;9.210;2023-11-19T03:24:43;99665.81;;;9.75;84.97
49585;BME280;35491;49.142;9.210;2023-11-19T03:25:44;99664.13;;;9.74;84.72
49585;BME280;35491;49.142;9.210;2023-11-19T03:26:48;99674.38;;;9.78;84.63
49585;BME280;35491;49.142;9.210;2023-11-19T03:27:50;99670.00;;;9.77;84.70
49585;BME280;35491;49.142;9.210;2023-11-19T03:28:51;99670.63;;;9.71;84.70
49585;BME280;35491;49.142;9.210;2023-11-19T03:29:54;99657.47;;;9.60;85.41
49585;BME280;35491;49.142;9.210;2023-11-19T03:30:57;99652.03;;;9.51;85.99
49585;BME280;35491;49.142;9.210;2023-11-19T03:32:01;99652.13;;;9.60;85.40
49585;BME280;35491;49.142;9.210;2023-11-19T03:33:01;99650.81;;;9.64;84.81
49585;BME280;35491;49.142;9.210;2023-11-19T03:34:05;99648.59;;;9.59;85.20
49585;BME280;35491;49.142;9.210;2023-11-19T03:35:06;99641.72;;;9.66;85.58
49585;BME280;35491;49.142;9.210;2023-11-19T03:36:12;99639.97;;;9.75;85.06
49585;BME280;35491;49.142;9.210;2023-11-19T03:37:13;99641.03;;;9.82;84.71
49585;BME280;35491;49.142;9.210;2023-11-19T03:38:17;99637.53;;;9.82;84.88
49585;BME280;35491;49.142;9.210;2023-11-19T03:39:18;99638.34;;;9.82;84.81
49585;BME280;35491;49.142;9.210;2023-11-19T03:40:25;99635.84;;;9.81;84.90
49585;BME280;35491;49.142;9.210;2023-11-19T03:41:25;99637.00;;;9.78;84.73
49585;BME280;35491;49.142;9.210;2023-11-19T03:42:29;99628.38;;;9.84;84.51
49585;BME280;35491;49.142;9.210;2023-11-19T03:43:31;99631.75;;;9.87;84.36
49585;BME280;35491;49.142;9.210;2023-11-19T03:44:34;99631.75;;;9.87;84.40
49585;BME280;35491;49.142;9.210;2023-11-19T03:45:35;99634.13;;;9.90;84.60
49585;BME280;35491;49.142;9.210;2023-11-19T03:46:42;99622.13;;;9.94;84.49
49585;BME280;35491;49.142;9.210;2023-11-19T03:47:42;99628.91;;;9.88;84.67
49585;BME280;35491;49.142;9.210;2023-11-19T03:48:46;99633.44;;;9.88;84.46
49585;BME280;35491;49.142;9.210;2023-11-19T03:49:47;99620.78;;;9.90;84.70
49585;BME280;35491;49.142;9.210;2023-11-19T03:50:48;99627.47;;;9.94;84.52
49585;BME280;35491;49.142;9.210;2023-11-19T03:51:52;99612.84;;;9.98;84.73
49585;BME280;35491;49.142;9.210;2023-11-19T03:52:52;99612.22;;;10.04;84.71
49585;BME280;35491;49.142;9.210;2023-11-19T03:53:53;99608.28;;;10.08;84.31
49585;BME280;35491;49.142;9.210;2023-11-19T03:54:56;99618.34;;;10.14;84.54
49585;BME280;35491;49.142;9.210;2023-11-19T03:55:57;99623.69;;;10.14;84.45
49585;BME280;35491;49.142;9.210;2023-11-19T03:57:01;99630.69;;;10.15;84.75
49585;BME280;35491;49.142;9.210;2023-11-19T03:58:03;99626.66;;;10.11;84.84
49585;BME280;35491;49.142;9.210;2023-11-19T03:59:06;99628.50;;;10.11;85.19
49585;BME280;35491;49.142;9.210;2023-11-19T04:00:09;99618.88;;;10.18;84.94
49585;BME280;35491;49.142;9.210;2023-11-19T04:01:14;99624.22;;;10.18;85.08
49585;BME280;35491;49.142;9.210;2023-11-19T04:02:20;99626.06;;;10.18;85.06
49585;BME280;35491;49.142;9.210;2023-11-19T04:03:20;99621.88;;;10.15;85.33
49585;BME280;35491;49.142;9.210;2023-11-19T04:04:23;99618.97;;;10.08;85.30
49585;BME280;35491;49.142;9.210;2023-11-19T04:05:24;99617.44;;;10.06;85.16
49585;BME280;35491;49.142;9.210;2023-11-19T04:06:28;99620.94;;;10.06;85.36
49585;BME280;35491;49.142;9.210;2023-11-19T04:07:29;99620.56;;;10.01;85.40
49585;BME280;35491;49.142;9.210;2023-11-19T04:08:30;99615.75;;;10.05;85.46
49585;BME280;35491;49.142;9.210;2023-11-19T04:09:33;99612.56;;;10.01;85.84
49585;BME280;35491;49.142;9.210;2023-11-19T04:10:34;99615.88;;;10.03;85.65
49585;BME280;35491;49.142;9.210;2023-11-19T04:11:37;99616.75;;;10.04;85.47
49585;BME280;35491;49.142;9.210;2023-11-19T04:12:38;99617.28;;;10.07;85.50
49585;BME280;35491;49.142;9.210;2023-11-19T04:13:41;99615.88;;;10.03;85.90
49585;BME280;35491;49.142;9.210;2023-11-19T04:14:43;99618.19;;;9.98;86.00
49585;BME280;35491;49.142;9.210;2023-11-19T04:15:48;99622.38;;;10.01;85.53
49585;BME280;35491;49.142;9.210;2023-11-19T04:16:49;99608.13;;;9.92;86.06
49585;BME280;35491;49.142;9.210;2023-11-19T04:17:57;99617.31;;;9.97;86.18
49585;BME280;35491;49.142;9.210;2023-11-19T04:18:57;99616.22;;;10.00;85.84
49585;BME280;35491;49.142;9.210;2023-11-19T04:20:01;99611.69;;;10.01;85.88
49585;BME280;35491;49.142;9.210;2023-11-19T04:21:06;99615.88;;;10.03;85.80
49585;BME280;35491;49.142;9.210;2023-11-19T04:22:09;99617.56;;;10.04;85.91
49585;BME280;35491;49.142;9.210;2023-11-19T04:23:11;99617.56;;;10.04;85.88
49585;BME280;35491;49.142;9.210;2023-11-19T04:24:14;99623.81;;;9.95;86.29
49585;BME280;35491;49.142;9.210;2023-11-19T04:25:15;99622.91;;;9.86;86.96
49585;BME280;35491;49.142;9.210;2023-11-19T04:26:19;99621.16;;;9.95;86.83
49585;BME280;35491;49.142;9.210;2023-11-19T04:27:20;99625.34;;;9.97;86.59
49585;BME280;35491;49.142;9.210;2023-11-19T04:28:24;99626.19;;;9.98;86.39
49585;BME280;35491;49.142;9.210;2023-11-19T04:29:27;99618.03;;;9.99;86.80
49585;BME280;35491;49.142;9.210;2023-11-19T04:30:30;99610.88;;;10.00;86.95
49585;BME280;35491;49.142;9.210;2023-11-19T04:31:32;99606.88;;;10.04;86.57
49585;BME280;35491;49.142;9.210;2023-11-19T04:32:32;99602.94;;;10.08;86.64
49585;BME280;35491;49.142;9.210;2023-11-19T04:33:38;99608.13;;;10.10;86.56
49585;BME280;35491;49.142;9.210;2023-11-19T04:34:39;99602.00;;;10.18;86.27
49585;BME280;35491;49.142;9.210;2023-11-19T04:35:42;99599.72;;;10.23;86.41
49585;BME280;35491;49.142;9.210;2023-11-19T04:36:43;99595.75;;;10.27;86.07
49585;BME280;35491;49.142;9.210;2023-11-19T04:37:46;99605.00;;;10.33;85.90
49585;BME280;35491;49.142;9.210;2023-11-19T04:38:50;99587.63;;;10.37;85.74
49585;BME280;35491;49.142;9.210;2023-11-19T04:39:50;99599.47;;;10.34;85.81
49585;BME280;35491;49.142;9.210;2023-11-19T04:40:54;99601.00;;;10.37;85.61
49585;BME280;35491;49.142;9.210;2023-11-19T04:41:57;99601.47;;;10.32;85.87
49585;BME280;35491;49.142;9.210;2023-11-19T04:43:00;99600.16;;;10.36;85.70
49585;BME280;35491;49.142;9.210;2023-11-19T04:44:01;99606.06;;;10.40;85.73
49585;BME280;35491;49.142;9.210;2023-11-19T04:45:01;99601.25;;;10.43;85.62
49585;BME280;35491;49.142;9.210;2023-11-19T04:46:06;99604.28;;;10.49;85.65
49585;BME280;35491;49.142;9.210;2023-11-19T04:47:07;99605.50;;;10.54;85.32
49585;BME280;35491;49.142;9.210;2023-11-19T04:48:11;99607.19;;;10.55;85.27
49585;BME280;35491;49.142;9.210;2023-11-19T04:49:15;99612.41;;;10.57;85.49
49585;BME280;35491;49.142;9.210;2023-11-19T04:50:18;99610.38;;;10.59;85.45
49585;BME280;35491;49.142;9.210;2023-11-19T04:51:19;99604.75;;;10.62;85.18
49585;BME280;35491;49.142;9.210;2023-11-19T04:52:22;99605.25;;;10.66;85.23
49585;BME280;35491;49.142;9.210;2023-11-19T04:53:23;99603.28;;;10.68;85.33
49585;BME280;35491;49.142;9.210;2023-11-19T04:54:26;99605.44;;;10.64;85.49
49585;BME280;35491;49.142;9.210;2023-11-19T04:55:27;99607.25;;;10.64;85.77
49585;BME280;35491;49.142;9.210;2023-11-19T04:56:30;99603.28;;;10.68;85.82
49585;BME280;35491;49.142;9.210;2023-11-19T04:57:31;99603.63;;;10.73;85.75
49585;BME280;35491;49.142;9.210;2023-11-19T04:58:35;99605.53;;;10.81;85.50
49585;BME280;35491;49.142;9.210;2023-11-19T04:59:37;99602.56;;;10.84;85.33
49585;BME280;35491;49.142;9.210;2023-11-19T05:00:37;99606.44;;;10.89;85.18
49585;BME280;35491;49.142;9.210;2023-11-19T05:01:41;99604.28;;;10.93;85.27
49585;BME280;35491;49.142;9.210;2023-11-19T05:02:42;99601.59;;;10.93;85.56
49585;BME280;35491;49.142;9.210;2023-11-19T05:03:45;99602.94;;;10.97;85.43
49585;BME280;35491;49.142;9.210;2023-11-19T05:04:48;99598.47;;;10.98;85.93
49585;BME280;35491;49.142;9.210;2023-11-19T05:05:51;99603.81;;;10.98;86.01
49585;BME280;35491;49.142;9.210;2023-11-19T05:06:52;99598.47;;;10.98;86.80
49585;BME280;35491;49.142;9.210;2023-11-19T05:07:55;99605.50;;;10.99;86.76
49585;BME280;35491;49.142;9.210;2023-11-19T05:08:56;99606.69;;;11.04;87.10
49585;BME280;35491;49.142;9.210;2023-11-19T05:10:01;99609.53;;;11.11;86.97
49585;BME280;35491;49.142;9.210;2023-11-19T05:11:01;99610.06;;;11.15;86.80
49585;BME280;35491;49.142;9.210;2023-11-19T05:12:06;99607.06;;;11.18;86.92
49585;BME280;35491;49.142;9.210;2023-11-19T05:13:10;99613.44;;;11.17;87.50
49585;BME280;35491;49.142;9.210;2023-11-19T05:14:13;99614.81;;;11.21;87.18
49585;BME280;35491;49.142;9.210;2023-11-19T05:15:14;99603.78;;;11.24;87.54
49585;BME280;35491;49.142;9.210;2023-11-19T05:16:17;99607.97;;;11.27;87.62
49585;BME280;35491;49.142;9.210;2023-11-19T05:17:18;99603.63;;;11.26;87.88
49585;BME280;35491;49.142;9.210;2023-11-19T05:18:19;99611.47;;;11.27;87.87
49585;BME280;35491;49.142;9.210;2023-11-19T05:19:22;99604.66;;;11.33;87.60
49585;BME280;35491;49.142;9.210;2023-11-19T05:20:25;99607.84;;;11.36;87.74
49585;BME280;35491;49.142;9.210;2023-11-19T05:21:29;99604.00;;;11.39;87.52
49585;BME280;35491;49.142;9.210;2023-11-19T05:22:31;99605.53;;;11.42;87.47
49585;BME280;35491;49.142;9.210;2023-11-19T05:23:34;99614.03;;;11.37;87.99
49585;BME280;35491;49.142;9.210;2023-11-19T05:24:35;99606.66;;;11.39;87.98
49585;BME280;35491;49.142;9.210;2023-11-19T05:25:39;99607.84;;;11.36;88.23
49585;BME280;35491;49.142;9.210;2023-11-19T05:26:40;99609.31;;;11.31;89.04
49585;BME280;35491;49.142;9.210;2023-11-19T05:27:41;99611.50;;;11.35;88.90
49585;BME280;35491;49.142;9.210;2023-11-19T05:28:44;99602.84;;;11.42;88.58
49585;BME280;35491;49.142;9.210;2023-11-19T05:29:45;99608.38;;;11.48;88.15
49585;BME280;35491;49.142;9.210;2023-11-19T05:30:48;99610.06;;;11.49;88.26
49585;BME280;35491;49.142;9.210;2023-11-19T05:31:49;99605.06;;;11.54;88.08
49585;BME280;35491;49.142;9.210;2023-11-19T05:32:52;99594.88;;;11.58;88.11
49585;BME280;35491;49.142;9.210;2023-11-19T05:33:53;99595.56;;;11.60;87.99
49585;BME280;35491;49.142;9.210;2023-11-19T05:34:56;99593.38;;;11.64;87.74
49585;BME280;35491;49.142;9.210;2023-11-19T05:35:59;99601.56;;;11.62;87.75
49585;BME280;35491;49.142;9.210;2023-11-19T05:37:04;99602.94;;;11.66;87.63
49585;BME280;35491;49.142;9.210;2023-11-19T05:38:05;99604.63;;;11.67;87.76
49585;BME280;35491;49.142;9.210;2023-11-19T05:39:09;99605.28;;;11.69;87.87
49585;BME280;35491;49.142;9.210;2023-11-19T05:40:11;99606.59;;;11.65;88.12
49585;BME280;35491;49.142;9.210;2023-11-19T05:41:17;99606.28;;;11.60;88.55
49585;BME280;35491;49.142;9.210;2023-11-19T05:42:18;99603.25;;;11.63;88.47
49585;BME280;35491;49.142;9.210;2023-11-19T05:43:21;99590.53;;;11.65;88.84
49585;BME280;35491;49.142;9.210;2023-11-19T05:44:22;99595.59;;;11.68;88.91
49585;BME280;35491;49.142;9.210;2023-11-19T05:45:25;99597.88;;;11.63;89.98
49585;BME280;35491;49.142;9.210;2023-11-19T05:46:27;99593.91;;;11.67;90.43
49585;BME280;35491;49.142;9.210;2023-11-19T05:47:30;99586.22;;;11.81;90.24
49585;BME280;35491;49.142;9.210;2023-11-19T05:48:31;99594.28;;;11.89;90.22
49585;BME280;35491;49.142;9.210;2023-11-19T05:49:34;99597.97;;;11.96;90.21
49585;BME280;35491;49.142;9.210;2023-11-19T05:50:35;99588.63;;;12.00;90.02
49585;BME280;35491;49.142;9.210;2023-11-19T05:51:41;99602.56;;;12.12;89.77
49585;BME280;35491;49.142;9.210;2023-11-19T05:52:41;99602.41;;;12.22;89.08
49585;BME280;35491;49.142;9.210;2023-11-19T05:53:44;99604.06;;;12.23;89.13
49585;BME280;35491;49.142;9.210;2023-11-19T05:54:46;99604.91;;;12.24;89.33